sensor_id;sensor_type;location;lat;lon;timestamp;temperature;humidity
28725;DHT22;43472;48.980;9.646;2023-04-24T00:01:13;12.10;99.90
28725;DHT22;43472;48.980;9.646;2023-04-24T00:06:16;12.10;99.90
28725;DHT22;43472;48.980;9.646;2023-04-24T00:11:18;12.00;99.90
28725;DHT22;43472;48.980;9.646;2023-04-24T00:16:22;12.00;99.90
28725;DHT22;43472;48.980;9.646;2023-04-24T00:21:24;11.90;99.90
28725;DHT22;43472;48.980;9.646;2023-04-24T00:26:27;12.00;99.90
28725;DHT22;43472;48.980;9.646;2023-04-24T00:31:29;11.90;99.90
28725;DHT22;43472;48.980;9.646;2023-04-24T00:36:31;12.00;99.90
28725;DHT22;43472;48.980;9.646;2023-04-24T00:41:34;11.90;99.90
28725;DHT22;43472;48.980;9.646;2023-04-24T00:46:36;11.90;99.90
28725;DHT22;43472;48.980;9.646;2023-04-24T00:51:38;11.80;99.90
28725;DHT22;43472;48.980;9.646;2023-04-24T00:56:40;12.30;99.90
28725;DHT22;43472;48.980;9.646;2023-04-24T01:01:43;12.00;99.90
28725;DHT22;43472;48.980;9.646;2023-04-24T01:06:46;11.90;99.90
28725;DHT22;43472;48.980;9.646;2023-04-24T01:11:48;11.80;99.90
28725;DHT22;43472;48.980;9.646;2023-04-24T01:16:51;11.80;99.90
28725;DHT22;43472;48.980;9.646;2023-04-24T01:21:54;12.00;99.90
28725;DHT22;43472;48.980;9.646;2023-04-24T01:26:59;12.00;99.90
28725;DHT22;43472;48.980;9.646;2023-04-24T01:32:03;12.10;99.90
28725;DHT22;43472;48.980;9.646;2023-04-24T01:37:06;12.00;99.90
28725;DHT22;43472;48.980;9.646;2023-04-24T01:42:08;12.40;99.90
28725;DHT22;43472;48.980;9.646;2023-04-24T01:47:10;12.00;99.90
28725;DHT22;43472;48.980;9.646;2023-04-24T01:52:13;12.10;99.90
28725;DHT22;43472;48.980;9.646;2023-04-24T01:57:16;12.00;99.90
28725;DHT22;43472;48.980;9.646;2023-04-24T02:02:18;12.00;99.90
28725;DHT22;43472;48.980;9.646;2023-04-24T02:07:21;11.90;99.90
28725;DHT22;43472;48.980;9.646;2023-04-24T02:12:23;11.70;99.90
28725;DHT22;43472;48.980;9.646;2023-04-24T02:17:25;11.70;99.90
28725;DHT22;43472;48.980;9.646;2023-04-24T02:22:27;13.20;99.90
28725;DHT22;43472;48.980;9.646;2023-04-24T02:27:28;11.60;99.90
28725;DHT22;43472;48.980;9.646;2023-04-24T02:32:30;12.10;99.90
28725;DHT22;43472;48.980;9.646;2023-04-24T02:37:32;12.40;99.90
28725;DHT22;43472;48.980;9.646;2023-04-24T02:42:34;11.60;99.90
28725;DHT22;43472;48.980;9.646;2023-04-24T02:47:36;11.70;99.90
28725;DHT22;43472;48.980;9.646;2023-04-24T02:52:39;11.60;99.90
28725;DHT22;43472;48.980;9.646;2023-04-24T02:57:40;11.60;99.90
28725;DHT22;43472;48.980;9.646;2023-04-24T03:02:42;11.60;99.90
28725;DHT22;43472;48.980;9.646;2023-04-24T03:07:45;11.80;99.90
28725;DHT22;43472;48.980;9.646;2023-04-24T03:12:47;11.80;99.90
28725;DHT22;43472;48.980;9.646;2023-04-24T03:17:49;11.80;99.90
28725;DHT22;43472;48.980;9.646;2023-04-24T03:22:51;11.80;99.90
28725;DHT22;43472;48.980;9.646;2023-04-24T03:27:53;11.80;99.90
28725;DHT22;43472;48.980;9.646;2023-04-24T03:32:56;11.90;99.90
28725;DHT22;43472;48.980;9.646;2023-04-24T03:37:58;12.20;99.90
28725;DHT22;43472;48.980;9.646;2023-04-24T03:42:59;11.80;99.90
28725;DHT22;43472;48.980;9.646;2023-04-24T03:48:01;11.80;99.90
28725;DHT22;43472;48.980;9.646;2023-04-24T03:53:03;11.80;99.90
28725;DHT22;43472;48.980;9.646;2023-04-24T03:58:05;11.80;99.90
28725;DHT22;43472;48.980;9.646;2023-04-24T04:03:07;11.80;99.90
28725;DHT22;43472;48.980;9.646;2023-04-24T04:08:09;11.90;99.90
28725;DHT22;43472;48.980;9.646;2023-04-24T04:13:11;12.00;99.90
28725;DHT22;43472;48.980;9.646;2023-04-24T04:18:13;12.30;99.90
28725;DHT22;43472;48.980;9.646;2023-04-24T04:23:15;11.90;99.90
28725;DHT22;43472;48.980;9.646;2023-04-24T04:28:17;11.90;99.90
28725;DHT22;43472;48.980;9.646;2023-04-24T04:33:21;11.90;99.90
28725;DHT22;43472;48.980;9.646;2023-04-24T04:38:23;12.00;99.90
28725;DHT22;43472;48.980;9.646;2023-04-24T04:43:26;11.80;99.90
28725;DHT22;43472;48.980;9.646;2023-04-24T04:48:28;13.20;99.90
28725;DHT22;43472;48.980;9.646;2023-04-24T04:53:30;11.90;99.90
28725;DHT22;43472;48.980;9.646;2023-04-24T04:58:32;11.70;99.90
28725;DHT22;43472;48.980;9.646;2023-04-24T05:03:34;11.40;99.90
28725;DHT22;43472;48.980;9.646;2023-04-24T05:08:36;11.30;99.90
28725;DHT22;43472;48.980;9.646;2023-04-24T05:13:37;11.00;99.90
28725;DHT22;43472;48.980;9.646;2023-04-24T05:18:41;11.00;99.90
28725;DHT22;43472;48.980;9.646;2023-04-24T05:23:43;11.40;99.90
28725;DHT22;43472;48.980;9.646;2023-04-24T05:28:45;11.20;99.90
28725;DHT22;43472;48.980;9.646;2023-04-24T05:33:47;11.00;99.90
28725;DHT22;43472;48.980;9.646;2023-04-24T05:38:49;11.00;99.90
28725;DHT22;43472;48.980;9.646;2023-04-24T05:43:51;11.00;99.90
28725;DHT22;43472;48.980;9.646;2023-04-24T05:48:53;11.00;99.90
28725;DHT22;43472;48.980;9.646;2023-04-24T05:53:55;11.00;99.90
28725;DHT22;43472;48.980;9.646;2023-04-24T05:58:58;11.00;99.90
28725;DHT22;43472;48.980;9.646;2023-04-24T06:03:59;11.20;99.90
28725;DHT22;43472;48.980;9.646;2023-04-24T06:09:02;11.20;99.90
28725;DHT22;43472;48.980;9.646;2023-04-24T06:14:04;11.00;99.90
28725;DHT22;43472;48.980;9.646;2023-04-24T06:19:06;10.80;99.90
28725;DHT22;43472;48.980;9.646;2023-04-24T06:24:08;10.80;99.90
28725;DHT22;43472;48.980;9.646;2023-04-24T06:29:10;10.90;99.90
28725;DHT22;43472;48.980;9.646;2023-04-24T06:34:12;10.80;99.90
28725;DHT22;43472;48.980;9.646;2023-04-24T06:39:14;11.10;99.90
28725;DHT22;43472;48.980;9.646;2023-04-24T06:44:16;10.70;99.90
28725;DHT22;43472;48.980;9.646;2023-04-24T06:49:18;11.50;99.90
28725;DHT22;43472;48.980;9.646;2023-04-24T06:54:20;10.70;99.90
28725;DHT22;43472;48.980;9.646;2023-04-24T06:59:21;11.10;99.90
28725;DHT22;43472;48.980;9.646;2023-04-24T07:04:24;11.70;99.90
28725;DHT22;43472;48.980;9.646;2023-04-24T07:09:27;11.80;99.90
28725;DHT22;43472;48.980;9.646;2023-04-24T07:14:29;13.20;99.90
28725;DHT22;43472;48.980;9.646;2023-04-24T07:19:32;11.40;99.90
28725;DHT22;43472;48.980;9.646;2023-04-24T07:24:34;11.30;99.90
28725;DHT22;43472;48.980;9.646;2023-04-24T07:29:36;11.30;99.90
28725;DHT22;43472;48.980;9.646;2023-04-24T07:34:38;11.90;99.90
28725;DHT22;43472;48.980;9.646;2023-04-24T07:39:40;12.50;99.90
28725;DHT22;43472;48.980;9.646;2023-04-24T07:44:43;12.30;99.90
28725;DHT22;43472;48.980;9.646;2023-04-24T07:49:45;12.20;99.90
28725;DHT22;43472;48.980;9.646;2023-04-24T07:54:47;12.10;99.90
28725;DHT22;43472;48.980;9.646;2023-04-24T08:04:54;11.70;99.90
28725;DHT22;43472;48.980;9.646;2023-04-24T08:09:59;12.20;99.90
28725;DHT22;43472;48.980;9.646;2023-04-24T08:15:01;11.80;99.90
28725;DHT22;43472;48.980;9.646;2023-04-24T08:20:04;12.00;99.90
28725;DHT22;43472;48.980;9.646;2023-04-24T08:25:07;12.20;99.90
28725;DHT22;43472;48.980;9.646;2023-04-24T08:30:09;11.90;99.90
28725;DHT22;43472;48.980;9.646;2023-04-24T08:35:11;11.80;99.90
28725;DHT22;43472;48.980;9.646;2023-04-24T08:40:15;11.60;99.90
28725;DHT22;43472;48.980;9.646;2023-04-24T08:45:17;11.80;99.90
28725;DHT22;43472;48.980;9.646;2023-04-24T08:50:20;12.20;99.90
28725;DHT22;43472;48.980;9.646;2023-04-24T08:55:24;12.50;99.90
28725;DHT22;43472;48.980;9.646;2023-04-24T09:00:27;12.60;99.90
28725;DHT22;43472;48.980;9.646;2023-04-24T09:05:29;13.00;99.90
28725;DHT22;43472;48.980;9.646;2023-04-24T09:10:34;13.90;99.90
28725;DHT22;43472;48.980;9.646;2023-04-24T09:15:37;14.20;99.90
28725;DHT22;43472;48.980;9.646;2023-04-24T09:21:08;13.80;99.90
28725;DHT22;43472;48.980;9.646;2023-04-24T09:26:11;14.30;99.90
28725;DHT22;43472;48.980;9.646;2023-04-24T09:31:14;13.80;99.90
28725;DHT22;43472;48.980;9.646;2023-04-24T09:36:19;13.70;99.90
28725;DHT22;43472;48.980;9.646;2023-04-24T09:41:28;13.50;99.90
28725;DHT22;43472;48.980;9.646;2023-04-24T09:46:31;13.50;99.90
28725;DHT22;43472;48.980;9.646;2023-04-24T09:51:37;13.20;99.90
28725;DHT22;43472;48.980;9.646;2023-04-24T09:56:43;13.10;99.90
28725;DHT22;43472;48.980;9.646;2023-04-24T10:01:46;12.70;99.90
28725;DHT22;43472;48.980;9.646;2023-04-24T10:06:51;12.80;99.90
28725;DHT22;43472;48.980;9.646;2023-04-24T10:11:54;12.10;99.90
28725;DHT22;43472;48.980;9.646;2023-04-24T10:16:56;12.30;99.90
28725;DHT22;43472;48.980;9.646;2023-04-24T10:22:00;12.60;99.90
28725;DHT22;43472;48.980;9.646;2023-04-24T10:27:03;12.70;99.90
28725;DHT22;43472;48.980;9.646;2023-04-24T10:32:07;12.90;99.90
28725;DHT22;43472;48.980;9.646;2023-04-24T10:37:11;12.60;99.90
28725;DHT22;43472;48.980;9.646;2023-04-24T10:42:15;12.60;99.90
28725;DHT22;43472;48.980;9.646;2023-04-24T10:47:18;14.20;99.90
28725;DHT22;43472;48.980;9.646;2023-04-24T10:52:20;14.20;99.90
28725;DHT22;43472;48.980;9.646;2023-04-24T10:57:26;13.50;99.90
28725;DHT22;43472;48.980;9.646;2023-04-24T11:02:38;12.70;99.90
28725;DHT22;43472;48.980;9.646;2023-04-24T11:08:15;12.60;99.90
28725;DHT22;43472;48.980;9.646;2023-04-24T11:13:21;12.10;99.90
28725;DHT22;43472;48.980;9.646;2023-04-24T11:18:23;12.50;99.90
28725;DHT22;43472;48.980;9.646;2023-04-24T11:23:25;12.50;99.90
28725;DHT22;43472;48.980;9.646;2023-04-24T11:28:28;12.30;99.90
28725;DHT22;43472;48.980;9.646;2023-04-24T11:33:31;13.50;99.90
28725;DHT22;43472;48.980;9.646;2023-04-24T11:38:33;14.40;99.90
28725;DHT22;43472;48.980;9.646;2023-04-24T11:43:35;14.60;99.90
28725;DHT22;43472;48.980;9.646;2023-04-24T11:48:38;14.10;99.90
28725;DHT22;43472;48.980;9.646;2023-04-24T11:53:41;14.00;99.90
28725;DHT22;43472;48.980;9.646;2023-04-24T11:58:45;13.70;99.90
28725;DHT22;43472;48.980;9.646;2023-04-24T12:03:50;13.20;99.90
28725;DHT22;43472;48.980;9.646;2023-04-24T12:08:53;13.00;99.90
28725;DHT22;43472;48.980;9.646;2023-04-24T12:14:11;13.40;99.90
28725;DHT22;43472;48.980;9.646;2023-04-24T12:19:20;12.60;99.90
28725;DHT22;43472;48.980;9.646;2023-04-24T12:24:22;12.60;99.90
28725;DHT22;43472;48.980;9.646;2023-04-24T12:29:24;12.60;99.90
28725;DHT22;43472;48.980;9.646;2023-04-24T12:34:26;13.00;99.90
28725;DHT22;43472;48.980;9.646;2023-04-24T12:39:28;12.80;99.90
28725;DHT22;43472;48.980;9.646;2023-04-24T12:44:34;12.70;99.90
28725;DHT22;43472;48.980;9.646;2023-04-24T12:49:36;12.50;99.90
28725;DHT22;43472;48.980;9.646;2023-04-24T12:54:38;12.60;99.90
28725;DHT22;43472;48.980;9.646;2023-04-24T12:59:40;12.80;99.90
28725;DHT22;43472;48.980;9.646;2023-04-24T13:04:46;13.30;99.90
28725;DHT22;43472;48.980;9.646;2023-04-24T13:09:49;12.80;99.90
28725;DHT22;43472;48.980;9.646;2023-04-24T13:14:51;12.50;99.90
28725;DHT22;43472;48.980;9.646;2023-04-24T13:19:54;11.80;99.90
28725;DHT22;43472;48.980;9.646;2023-04-24T13:24:56;11.30;99.90
28725;DHT22;43472;48.980;9.646;2023-04-24T13:29:58;11.40;99.90
28725;DHT22;43472;48.980;9.646;2023-04-24T13:35:00;12.00;99.90
28725;DHT22;43472;48.980;9.646;2023-04-24T13:40:02;12.30;99.90
28725;DHT22;43472;48.980;9.646;2023-04-24T13:45:08;12.50;99.90
28725;DHT22;43472;48.980;9.646;2023-04-24T13:50:25;12.90;99.90
28725;DHT22;43472;48.980;9.646;2023-04-24T13:55:28;12.40;99.90
28725;DHT22;43472;48.980;9.646;2023-04-24T14:00:30;12.10;99.90
28725;DHT22;43472;48.980;9.646;2023-04-24T14:05:32;12.50;99.90
28725;DHT22;43472;48.980;9.646;2023-04-24T14:10:34;12.20;99.90
28725;DHT22;43472;48.980;9.646;2023-04-24T14:15:40;12.70;99.90
28725;DHT22;43472;48.980;9.646;2023-04-24T14:25:44;12.70;99.90
28725;DHT22;43472;48.980;9.646;2023-04-24T14:51:33;13.10;99.90
28725;DHT22;43472;48.980;9.646;2023-04-24T15:34:11;14.10;99.90
28725;DHT22;43472;48.980;9.646;2023-04-24T15:39:13;13.60;99.90
28725;DHT22;43472;48.980;9.646;2023-04-24T15:44:15;13.60;99.90
28725;DHT22;43472;48.980;9.646;2023-04-24T15:49:18;13.50;99.90
28725;DHT22;43472;48.980;9.646;2023-04-24T15:54:20;14.00;99.90
28725;DHT22;43472;48.980;9.646;2023-04-24T15:59:22;13.70;99.90
28725;DHT22;43472;48.980;9.646;2023-04-24T16:04:24;13.30;99.90
28725;DHT22;43472;48.980;9.646;2023-04-24T16:09:27;12.90;99.90
28725;DHT22;43472;48.980;9.646;2023-04-24T16:14:28;12.80;99.90
28725;DHT22;43472;48.980;9.646;2023-04-24T16:19:30;13.70;99.90
28725;DHT22;43472;48.980;9.646;2023-04-24T16:24:34;13.70;99.90
28725;DHT22;43472;48.980;9.646;2023-04-24T16:29:36;13.50;99.90
28725;DHT22;43472;48.980;9.646;2023-04-24T16:34:38;13.40;99.90
28725;DHT22;43472;48.980;9.646;2023-04-24T16:39:40;13.10;99.90
28725;DHT22;43472;48.980;9.646;2023-04-24T16:44:46;13.00;99.90
28725;DHT22;43472;48.980;9.646;2023-04-24T16:49:48;12.40;99.90
28725;DHT22;43472;48.980;9.646;2023-04-24T16:54:50;12.30;99.90
28725;DHT22;43472;48.980;9.646;2023-04-24T16:59:52;12.20;99.90
28725;DHT22;43472;48.980;9.646;2023-04-24T17:04:54;12.20;99.90
28725;DHT22;43472;48.980;9.646;2023-04-24T17:09:56;12.10;99.90
28725;DHT22;43472;48.980;9.646;2023-04-24T17:14:58;11.80;99.90
28725;DHT22;43472;48.980;9.646;2023-04-24T17:20:07;12.00;99.90
28725;DHT22;43472;48.980;9.646;2023-04-24T17:25:23;12.00;99.90
28725;DHT22;43472;48.980;9.646;2023-04-24T17:30:25;12.70;99.90
28725;DHT22;43472;48.980;9.646;2023-04-24T17:35:27;12.10;99.90
28725;DHT22;43472;48.980;9.646;2023-04-24T17:40:29;12.20;99.90
28725;DHT22;43472;48.980;9.646;2023-04-24T17:45:31;12.00;99.90
28725;DHT22;43472;48.980;9.646;2023-04-24T17:50:32;12.00;99.90
28725;DHT22;43472;48.980;9.646;2023-04-24T17:55:34;11.90;99.90
28725;DHT22;43472;48.980;9.646;2023-04-24T18:00:36;12.00;99.90
28725;DHT22;43472;48.980;9.646;2023-04-24T18:05:38;12.10;99.90
28725;DHT22;43472;48.980;9.646;2023-04-24T18:10:41;12.00;99.90
28725;DHT22;43472;48.980;9.646;2023-04-24T18:15:45;12.10;99.90
28725;DHT22;43472;48.980;9.646;2023-04-24T18:25:49;11.90;99.90
28725;DHT22;43472;48.980;9.646;2023-04-24T18:30:51;12.00;99.90
28725;DHT22;43472;48.980;9.646;2023-04-24T18:35:53;12.00;99.90
28725;DHT22;43472;48.980;9.646;2023-04-24T18:40:55;12.00;99.90
28725;DHT22;43472;48.980;9.646;2023-04-24T18:45:57;11.90;99.90
28725;DHT22;43472;48.980;9.646;2023-04-24T18:50:59;11.90;99.90
28725;DHT22;43472;48.980;9.646;2023-04-24T18:56:01;11.80;99.90
28725;DHT22;43472;48.980;9.646;2023-04-24T19:01:03;11.70;99.90
28725;DHT22;43472;48.980;9.646;2023-04-24T19:06:08;11.70;99.90
28725;DHT22;43472;48.980;9.646;2023-04-24T19:11:10;11.70;99.90
28725;DHT22;43472;48.980;9.646;2023-04-24T19:16:12;11.80;99.90
28725;DHT22;43472;48.980;9.646;2023-04-24T19:21:14;11.80;99.90
28725;DHT22;43472;48.980;9.646;2023-04-24T19:26:16;11.80;99.90
28725;DHT22;43472;48.980;9.646;2023-04-24T19:31:18;11.80;99.90
28725;DHT22;43472;48.980;9.646;2023-04-24T19:36:20;12.40;99.90
28725;DHT22;43472;48.980;9.646;2023-04-24T19:41:22;11.80;99.90
28725;DHT22;43472;48.980;9.646;2023-04-24T19:46:24;11.90;99.90
28725;DHT22;43472;48.980;9.646;2023-04-24T19:51:26;11.90;99.90
28725;DHT22;43472;48.980;9.646;2023-04-24T19:56:28;11.90;99.90
28725;DHT22;43472;48.980;9.646;2023-04-24T20:01:30;12.20;99.90
28725;DHT22;43472;48.980;9.646;2023-04-24T20:06:33;11.90;99.90
28725;DHT22;43472;48.980;9.646;2023-04-24T20:11:35;11.80;99.90
28725;DHT22;43472;48.980;9.646;2023-04-24T20:16:37;11.70;99.90
28725;DHT22;43472;48.980;9.646;2023-04-24T20:21:39;11.70;99.90
28725;DHT22;43472;48.980;9.646;2023-04-24T20:26:41;11.70;99.90
28725;DHT22;43472;48.980;9.646;2023-04-24T20:31:43;11.60;99.90
28725;DHT22;43472;48.980;9.646;2023-04-24T20:36:45;11.60;99.90
28725;DHT22;43472;48.980;9.646;2023-04-24T20:41:50;11.50;99.90
28725;DHT22;43472;48.980;9.646;2023-04-24T20:46:52;11.70;99.90
28725;DHT22;43472;48.980;9.646;2023-04-24T20:51:54;11.40;99.90
28725;DHT22;43472;48.980;9.646;2023-04-24T20:56:57;11.40;99.90
28725;DHT22;43472;48.980;9.646;2023-04-24T21:01:59;11.30;99.90
28725;DHT22;43472;48.980;9.646;2023-04-24T21:07:00;11.60;99.90
28725;DHT22;43472;48.980;9.646;2023-04-24T21:12:02;10.90;99.90
28725;DHT22;43472;48.980;9.646;2023-04-24T21:17:04;10.90;99.90
28725;DHT22;43472;48.980;9.646;2023-04-24T21:22:06;10.90;99.90
28725;DHT22;43472;48.980;9.646;2023-04-24T21:27:08;10.90;99.90
28725;DHT22;43472;48.980;9.646;2023-04-24T21:32:10;10.90;99.90
28725;DHT22;43472;48.980;9.646;2023-04-24T21:37:12;11.00;99.90
28725;DHT22;43472;48.980;9.646;2023-04-24T21:42:16;11.00;99.90
28725;DHT22;43472;48.980;9.646;2023-04-24T21:47:17;11.30;99.90
28725;DHT22;43472;48.980;9.646;2023-04-24T21:52:19;10.90;99.90
28725;DHT22;43472;48.980;9.646;2023-04-24T21:57:21;10.60;99.90
28725;DHT22;43472;48.980;9.646;2023-04-24T22:02:23;12.20;99.90
28725;DHT22;43472;48.980;9.646;2023-04-24T22:07:24;10.60;99.90
28725;DHT22;43472;48.980;9.646;2023-04-24T22:12:26;10.50;99.90
28725;DHT22;43472;48.980;9.646;2023-04-24T22:17:28;10.50;99.90
28725;DHT22;43472;48.980;9.646;2023-04-24T22:22:31;10.50;99.90
28725;DHT22;43472;48.980;9.646;2023-04-24T22:27:32;10.50;99.90
28725;DHT22;43472;48.980;9.646;2023-04-24T22:32:36;10.60;99.90
28725;DHT22;43472;48.980;9.646;2023-04-24T22:37:38;10.50;99.90
28725;DHT22;43472;48.980;9.646;2023-04-24T22:42:40;10.30;99.90
28725;DHT22;43472;48.980;9.646;2023-04-24T22:47:41;10.30;99.90
28725;DHT22;43472;48.980;9.646;2023-04-24T22:52:43;10.30;99.90
28725;DHT22;43472;48.980;9.646;2023-04-24T22:57:49;10.30;99.90
28725;DHT22;43472;48.980;9.646;2023-04-24T23:02:51;10.30;99.90
28725;DHT22;43472;48.980;9.646;2023-04-24T23:07:53;10.30;99.90
28725;DHT22;43472;48.980;9.646;2023-04-24T23:12:55;10.20;99.90
28725;DHT22;43472;48.980;9.646;2023-04-24T23:17:57;10.20;99.90
28725;DHT22;43472;48.980;9.646;2023-04-24T23:22:59;10.10;99.90
28725;DHT22;43472;48.980;9.646;2023-04-24T23:28:01;10.10;99.90
28725;DHT22;43472;48.980;9.646;2023-04-24T23:33:03;9.90;99.90
28725;DHT22;43472;48.980;9.646;2023-04-24T23:38:05;8.10;99.90
28725;DHT22;43472;48.980;9.646;2023-04-24T23:43:07;9.80;99.90
28725;DHT22;43472;48.980;9.646;2023-04-24T23:48:09;9.80;99.90
28725;DHT22;43472;48.980;9.646;2023-04-24T23:53:11;9.90;99.90
28725;DHT22;43472;48.980;9.646;2023-04-24T23:58:13;9.90;99.90
